Sheng Jia 1 — XUGG7 — position and weather

sailwx.info

Track history (hours):
 
Tides and Currents Weather Stations Pressure Air Temp Water Temp Dewpoint Dewpoint Depression Visibility Wind Speed Wind Dir Waves Ship Positions

Sheng Jia 1

Last reported at 2016-Feb-08 11:26 UTC. Time now 2016-Feb-08 12:32 UTC.
Position N 35°33' E 140°02'.

Length 73 m; draft 4 m.

Type: Cargo ship. MMSI: 515744000.

Date/timePositionNaut miles runAvg speedWind from/ knotsBaromVisibWave heightAir tempDewpointWater temp
2016-Feb-08 11:26N 35°33' E 140°02'0 0.0
2016-Feb-08 10:32N 35°33' E 140°02'0 0.0
2016-Feb-08 09:20N 35°33' E 140°02'4 5.0
2016-Feb-08 08:33N 35°32' E 139°57'9 9.4
2016-Feb-08 07:33N 35°27' E 139°47'6 6.4
2016-Feb-08 06:34N 35°27' E 139°40'0 0.0
2016-Feb-08 05:34N 35°27' E 139°40'0 0.0
2016-Feb-08 04:33N 35°27' E 139°40'0 0.0
2016-Feb-08 03:34N 35°27' E 139°40'0 0.0
2016-Feb-08 02:33N 35°27' E 139°40'0 0.0
2016-Feb-08 01:33N 35°27' E 139°40'0 0.0
2016-Feb-08 00:33N 35°27' E 139°40'0 0.0
2016-Feb-07 23:33N 35°27' E 139°40'3 2.7
2016-Feb-07 22:33N 35°26' E 139°43'0 0.3
2016-Feb-07 21:33N 35°27' E 139°43'0 0.0
2016-Feb-07 20:33N 35°27' E 139°43'0 0.0
2016-Feb-07 19:34N 35°27' E 139°43'0 0.0
2016-Feb-07 18:34N 35°27' E 139°43'0 0.0
2016-Feb-07 17:33N 35°27' E 139°43'0 0.0
2016-Feb-07 16:34N 35°27' E 139°43'0 0.0
2016-Feb-07 15:34N 35°27' E 139°43'0 0.0
2016-Feb-07 14:33N 35°27' E 139°43'0 0.0
2016-Feb-07 13:33N 35°27' E 139°43'0 0.0
2016-Feb-07 12:34N 35°27' E 139°43'0 0.0
2016-Feb-07 11:34N 35°27' E 139°43'0 0.1
2016-Feb-07 10:34N 35°27' E 139°43'0 0.0
2016-Feb-07 09:34N 35°27' E 139°43'0 0.0
2016-Feb-07 08:34N 35°27' E 139°43'0 0.0
2016-Feb-07 07:34N 35°27' E 139°43'0 0.0
2016-Feb-07 06:34N 35°27' E 139°43'0 0.0
2016-Feb-07 05:34N 35°27' E 139°43'0 0.0
2016-Feb-07 04:33N 35°27' E 139°43'0 0.0
2016-Feb-07 03:33N 35°27' E 139°43'0 0.0
2016-Feb-07 02:33N 35°27' E 139°43'3 2.6
2016-Feb-07 01:33N 35°24' E 139°44'8 8.4
2016-Feb-07 00:33N 35°16' E 139°46'8 8.3
2016-Feb-06 23:33N 35°08' E 139°44'  
2016-Feb-02 04:32N 31°20' E 121°41'1111.3
2016-Feb-02 03:33N 31°25' E 121°30'1010.3
2016-Feb-02 02:33N 31°32' E 121°21'1010.1
2016-Feb-02 01:33N 31°39' E 121°13'10 0.4
2016-Feb-01 00:30N 31°44' E 121°02'5 5.0
2016-Jan-31 23:26N 31°43' E 121°08'0 0.0
2016-Jan-31 22:23N 31°43' E 121°08'0 0.0
2016-Jan-31 21:29N 31°43' E 121°08'0 0.0
2016-Jan-31 19:32N 31°43' E 121°08'0 0.0
2016-Jan-31 18:22N 31°43' E 121°08'0 0.0
2016-Jan-31 17:28N 31°43' E 121°08'0 0.0
2016-Jan-31 16:32N 31°43' E 121°08'0 0.0
2016-Jan-31 15:22N 31°43' E 121°08'0 0.1
2016-Jan-31 14:22N 31°43' E 121°08'0 0.0
2016-Jan-31 13:22N 31°43' E 121°08'0 0.0
2016-Jan-31 12:28N 31°43' E 121°08'0 0.0
2016-Jan-31 11:31N 31°43' E 121°08'0 0.1
2016-Jan-31 10:22N 31°43' E 121°08'1 0.7
2016-Jan-31 09:32N 31°42' E 121°09'1010.7
2016-Jan-31 08:34N 31°35' E 121°18'1110.9
2016-Jan-31 07:33N 31°28' E 121°28'9 9.1
2016-Jan-31 06:33N 31°23' E 121°36'10 9.9
2016-Jan-31 05:33N 31°16' E 121°45'1010.3
2016-Jan-31 04:33N 31°09' E 121°54'36 1.2
2016-Jan-29 23:08N 30°37' E 122°14'6 7.7
2016-Jan-29 22:21N 30°32' E 122°10'34 8.7
2016-Jan-29 18:27N 30°04' E 121°48'  
Track history (hours):
 
Tides and Currents Weather Stations Pressure Air Temp Water Temp Dewpoint Dewpoint Depression Visibility Wind Speed Wind Dir Waves Ship Positions

Sheng Jia 1

Last reported at 2016-Feb-08 11:26 UTC. Time now 2016-Feb-08 12:32 UTC.
Position N 35°33' E 140°02'.

Length 73 m; draft 4 m.

Type: Cargo ship. MMSI: 515744000.

Date/timePositionNaut miles runAvg speedWind from/ knotsBaromVisibWave heightAir tempDewpointWater temp
2016-Feb-08 11:26N 35°33' E 140°02'0 0.0
2016-Feb-08 10:32N 35°33' E 140°02'0 0.0
2016-Feb-08 09:20N 35°33' E 140°02'4 5.0
2016-Feb-08 08:33N 35°32' E 139°57'9 9.4
2016-Feb-08 07:33N 35°27' E 139°47'6 6.4
2016-Feb-08 06:34N 35°27' E 139°40'0 0.0
2016-Feb-08 05:34N 35°27' E 139°40'0 0.0
2016-Feb-08 04:33N 35°27' E 139°40'0 0.0
2016-Feb-08 03:34N 35°27' E 139°40'0 0.0
2016-Feb-08 02:33N 35°27' E 139°40'0 0.0
2016-Feb-08 01:33N 35°27' E 139°40'0 0.0
2016-Feb-08 00:33N 35°27' E 139°40'0 0.0
2016-Feb-07 23:33N 35°27' E 139°40'3 2.7
2016-Feb-07 22:33N 35°26' E 139°43'0 0.3
2016-Feb-07 21:33N 35°27' E 139°43'0 0.0
2016-Feb-07 20:33N 35°27' E 139°43'0 0.0
2016-Feb-07 19:34N 35°27' E 139°43'0 0.0
2016-Feb-07 18:34N 35°27' E 139°43'0 0.0
2016-Feb-07 17:33N 35°27' E 139°43'0 0.0
2016-Feb-07 16:34N 35°27' E 139°43'0 0.0
2016-Feb-07 15:34N 35°27' E 139°43'0 0.0
2016-Feb-07 14:33N 35°27' E 139°43'0 0.0
2016-Feb-07 13:33N 35°27' E 139°43'0 0.0
2016-Feb-07 12:34N 35°27' E 139°43'0 0.0
2016-Feb-07 11:34N 35°27' E 139°43'0 0.1
2016-Feb-07 10:34N 35°27' E 139°43'0 0.0
2016-Feb-07 09:34N 35°27' E 139°43'0 0.0
2016-Feb-07 08:34N 35°27' E 139°43'0 0.0
2016-Feb-07 07:34N 35°27' E 139°43'0 0.0
2016-Feb-07 06:34N 35°27' E 139°43'0 0.0
2016-Feb-07 05:34N 35°27' E 139°43'0 0.0
2016-Feb-07 04:33N 35°27' E 139°43'0 0.0
2016-Feb-07 03:33N 35°27' E 139°43'0 0.0
2016-Feb-07 02:33N 35°27' E 139°43'3 2.6
2016-Feb-07 01:33N 35°24' E 139°44'8 8.4
2016-Feb-07 00:33N 35°16' E 139°46'8 8.3
2016-Feb-06 23:33N 35°08' E 139°44'  
2016-Feb-02 04:32N 31°20' E 121°41'1111.3
2016-Feb-02 03:33N 31°25' E 121°30'1010.3
2016-Feb-02 02:33N 31°32' E 121°21'1010.1
2016-Feb-02 01:33N 31°39' E 121°13'10 0.4
2016-Feb-01 00:30N 31°44' E 121°02'5 5.0
2016-Jan-31 23:26N 31°43' E 121°08'0 0.0
2016-Jan-31 22:23N 31°43' E 121°08'0 0.0
2016-Jan-31 21:29N 31°43' E 121°08'0 0.0
2016-Jan-31 19:32N 31°43' E 121°08'0 0.0
2016-Jan-31 18:22N 31°43' E 121°08'0 0.0
2016-Jan-31 17:28N 31°43' E 121°08'0 0.0
2016-Jan-31 16:32N 31°43' E 121°08'0 0.0
2016-Jan-31 15:22N 31°43' E 121°08'0 0.1
2016-Jan-31 14:22N 31°43' E 121°08'0 0.0
2016-Jan-31 13:22N 31°43' E 121°08'0 0.0
2016-Jan-31 12:28N 31°43' E 121°08'0 0.0
2016-Jan-31 11:31N 31°43' E 121°08'0 0.1
2016-Jan-31 10:22N 31°43' E 121°08'1 0.7
2016-Jan-31 09:32N 31°42' E 121°09'1010.7
2016-Jan-31 08:34N 31°35' E 121°18'1110.9
2016-Jan-31 07:33N 31°28' E 121°28'9 9.1
2016-Jan-31 06:33N 31°23' E 121°36'10 9.9
2016-Jan-31 05:33N 31°16' E 121°45'1010.3
2016-Jan-31 04:33N 31°09' E 121°54'36 1.2
2016-Jan-29 23:08N 30°37' E 122°14'6 7.7
2016-Jan-29 22:21N 30°32' E 122°10'34 8.7
2016-Jan-29 18:27N 30°04' E 121°48'  

Dump ship's entire track history